sensor_id;sensor_type;location;lat;lon;timestamp;temperature;humidity
21883;DHT22;11106;47.864;13.054;2022-10-16T08:05:51;14.30;99.90
21883;DHT22;11106;47.864;13.054;2022-10-16T08:10:52;29.00;91.30
21883;DHT22;11106;47.864;13.054;2022-10-16T08:15:54;28.10;91.80
21883;DHT22;11106;47.864;13.054;2022-10-16T08:31:14;30.30;89.40
21883;DHT22;11106;47.864;13.054;2022-10-16T10:02:36;23.80;93.80
21883;DHT22;11106;47.864;13.054;2022-10-16T10:07:43;23.70;95.10
21883;DHT22;11106;47.864;13.054;2022-10-16T10:12:46;23.60;96.50
21883;DHT22;11106;47.864;13.054;2022-10-16T10:17:52;23.10;96.70
21883;DHT22;11106;47.864;13.054;2022-10-16T10:22:53;22.90;96.00
21883;DHT22;11106;47.864;13.054;2022-10-16T10:28:18;22.70;94.80
21883;DHT22;11106;47.864;13.054;2022-10-16T10:54:37;22.70;95.40
21883;DHT22;11106;47.864;13.054;2022-10-16T10:59:54;23.00;96.50
21883;DHT22;11106;47.864;13.054;2022-10-16T11:10:38;22.80;93.50
21883;DHT22;11106;47.864;13.054;2022-10-16T11:15:43;22.60;95.00
21883;DHT22;11106;47.864;13.054;2022-10-16T11:20:56;22.80;93.70
21883;DHT22;11106;47.864;13.054;2022-10-16T11:26:02;23.00;94.50
21883;DHT22;11106;47.864;13.054;2022-10-16T11:36:25;22.90;94.40
21883;DHT22;11106;47.864;13.054;2022-10-16T11:41:35;23.00;94.50
21883;DHT22;11106;47.864;13.054;2022-10-16T11:46:42;22.90;94.50
21883;DHT22;11106;47.864;13.054;2022-10-16T11:51:55;23.00;93.80
21883;DHT22;11106;47.864;13.054;2022-10-16T11:57:12;23.10;94.10
21883;DHT22;11106;47.864;13.054;2022-10-16T12:07:46;23.30;94.00
21883;DHT22;11106;47.864;13.054;2022-10-16T12:12:49;23.40;94.00
21883;DHT22;11106;47.864;13.054;2022-10-16T12:17:50;23.50;96.00
21883;DHT22;11106;47.864;13.054;2022-10-16T12:23:02;23.50;93.00
21883;DHT22;11106;47.864;13.054;2022-10-16T12:33:26;23.40;93.10
21883;DHT22;11106;47.864;13.054;2022-10-16T12:38:37;23.50;94.70
21883;DHT22;11106;47.864;13.054;2022-10-16T12:43:44;23.70;94.70
21883;DHT22;11106;47.864;13.054;2022-10-16T12:48:45;23.80;95.60
21883;DHT22;11106;47.864;13.054;2022-10-16T12:54:01;23.90;95.70
21883;DHT22;11106;47.864;13.054;2022-10-16T12:59:16;23.90;95.80
21883;DHT22;11106;47.864;13.054;2022-10-16T13:04:34;24.00;96.10
21883;DHT22;11106;47.864;13.054;2022-10-16T13:10:28;24.10;96.30
21883;DHT22;11106;47.864;13.054;2022-10-16T13:31:25;24.10;91.10
21883;DHT22;11106;47.864;13.054;2022-10-16T13:36:29;24.10;91.60
21883;DHT22;11106;47.864;13.054;2022-10-16T13:41:30;24.10;92.20
21883;DHT22;11106;47.864;13.054;2022-10-16T13:46:30;24.10;92.80
21883;DHT22;11106;47.864;13.054;2022-10-16T13:51:34;24.10;93.30
21883;DHT22;11106;47.864;13.054;2022-10-16T13:56:35;24.10;93.60
21883;DHT22;11106;47.864;13.054;2022-10-16T14:01:41;24.10;92.10
21883;DHT22;11106;47.864;13.054;2022-10-16T14:06:45;24.00;91.60
21883;DHT22;11106;47.864;13.054;2022-10-16T14:12:10;24.00;91.50
21883;DHT22;11106;47.864;13.054;2022-10-16T14:17:18;23.90;92.50
21883;DHT22;11106;47.864;13.054;2022-10-16T14:27:31;23.80;91.90
21883;DHT22;11106;47.864;13.054;2022-10-16T14:32:32;23.80;91.10
21883;DHT22;11106;47.864;13.054;2022-10-16T14:37:33;23.70;91.80
21883;DHT22;11106;47.864;13.054;2022-10-16T14:42:34;23.60;90.50
21883;DHT22;11106;47.864;13.054;2022-10-16T14:47:37;23.60;91.90
21883;DHT22;11106;47.864;13.054;2022-10-16T14:52:46;23.60;91.80
21883;DHT22;11106;47.864;13.054;2022-10-16T14:57:47;23.40;94.40
21883;DHT22;11106;47.864;13.054;2022-10-16T15:02:49;23.40;94.20
21883;DHT22;11106;47.864;13.054;2022-10-16T15:07:50;23.20;95.70
21883;DHT22;11106;47.864;13.054;2022-10-16T15:12:52;23.10;96.20
21883;DHT22;11106;47.864;13.054;2022-10-16T15:17:53;23.00;97.00
21883;DHT22;11106;47.864;13.054;2022-10-16T15:23:04;22.80;97.80
21883;DHT22;11106;47.864;13.054;2022-10-16T15:28:10;22.70;98.30
21883;DHT22;11106;47.864;13.054;2022-10-16T15:33:16;22.40;98.90
21883;DHT22;11106;47.864;13.054;2022-10-16T15:38:19;22.20;99.40
21883;DHT22;11106;47.864;13.054;2022-10-16T15:43:20;22.00;99.70
21883;DHT22;11106;47.864;13.054;2022-10-16T15:48:21;21.80;99.90
21883;DHT22;11106;47.864;13.054;2022-10-16T15:53:22;21.60;99.90
21883;DHT22;11106;47.864;13.054;2022-10-16T15:58:22;21.50;99.90
21883;DHT22;11106;47.864;13.054;2022-10-16T16:03:23;21.10;99.90
21883;DHT22;11106;47.864;13.054;2022-10-16T16:08:24;20.90;99.90
21883;DHT22;11106;47.864;13.054;2022-10-16T16:13:25;20.70;99.90
21883;DHT22;11106;47.864;13.054;2022-10-16T16:18:26;20.60;99.90
21883;DHT22;11106;47.864;13.054;2022-10-16T16:23:27;20.40;99.90
21883;DHT22;11106;47.864;13.054;2022-10-16T16:28:27;20.20;99.90
21883;DHT22;11106;47.864;13.054;2022-10-16T16:33:28;20.00;99.90
21883;DHT22;11106;47.864;13.054;2022-10-16T16:38:29;19.80;99.90
21883;DHT22;11106;47.864;13.054;2022-10-16T16:43:30;19.60;99.90
21883;DHT22;11106;47.864;13.054;2022-10-16T16:48:31;19.40;99.90
21883;DHT22;11106;47.864;13.054;2022-10-16T16:53:36;19.30;99.90
21883;DHT22;11106;47.864;13.054;2022-10-16T16:58:37;19.10;99.90
21883;DHT22;11106;47.864;13.054;2022-10-16T17:03:38;19.00;99.90
21883;DHT22;11106;47.864;13.054;2022-10-16T17:08:39;18.80;99.90
21883;DHT22;11106;47.864;13.054;2022-10-16T17:19:36;18.60;99.90
21883;DHT22;11106;47.864;13.054;2022-10-16T17:24:37;18.30;99.90
21883;DHT22;11106;47.864;13.054;2022-10-16T17:29:38;18.20;99.90
21883;DHT22;11106;47.864;13.054;2022-10-16T17:34:38;18.00;99.90
21883;DHT22;11106;47.864;13.054;2022-10-16T17:39:39;17.90;99.90
21883;DHT22;11106;47.864;13.054;2022-10-16T17:44:40;17.80;99.90
21883;DHT22;11106;47.864;13.054;2022-10-16T17:49:40;17.70;99.90
21883;DHT22;11106;47.864;13.054;2022-10-16T17:54:41;17.60;99.90
21883;DHT22;11106;47.864;13.054;2022-10-16T17:59:43;17.50;99.90
21883;DHT22;11106;47.864;13.054;2022-10-16T18:04:44;17.40;99.90
21883;DHT22;11106;47.864;13.054;2022-10-16T18:09:45;17.30;99.90
21883;DHT22;11106;47.864;13.054;2022-10-16T18:14:45;17.20;99.90
21883;DHT22;11106;47.864;13.054;2022-10-16T18:19:46;17.10;99.90
21883;DHT22;11106;47.864;13.054;2022-10-16T18:24:47;17.10;99.90
21883;DHT22;11106;47.864;13.054;2022-10-16T18:29:48;17.00;99.90
21883;DHT22;11106;47.864;13.054;2022-10-16T18:34:48;16.90;99.90
21883;DHT22;11106;47.864;13.054;2022-10-16T18:39:50;16.90;99.90
21883;DHT22;11106;47.864;13.054;2022-10-16T18:44:51;16.80;99.90
21883;DHT22;11106;47.864;13.054;2022-10-16T18:49:52;16.70;99.90
21883;DHT22;11106;47.864;13.054;2022-10-16T18:54:55;16.70;99.90
21883;DHT22;11106;47.864;13.054;2022-10-16T18:59:56;16.60;99.90
21883;DHT22;11106;47.864;13.054;2022-10-16T19:04:58;16.60;99.90
21883;DHT22;11106;47.864;13.054;2022-10-16T19:10:00;16.50;99.90
21883;DHT22;11106;47.864;13.054;2022-10-16T19:15:01;16.50;99.90
21883;DHT22;11106;47.864;13.054;2022-10-16T19:20:04;16.40;99.90
21883;DHT22;11106;47.864;13.054;2022-10-16T19:25:06;16.30;99.90
21883;DHT22;11106;47.864;13.054;2022-10-16T19:30:07;16.30;99.90
21883;DHT22;11106;47.864;13.054;2022-10-16T19:35:09;16.20;99.90
21883;DHT22;11106;47.864;13.054;2022-10-16T19:40:10;16.00;99.90
21883;DHT22;11106;47.864;13.054;2022-10-16T19:45:11;16.00;99.90
21883;DHT22;11106;47.864;13.054;2022-10-16T19:50:12;15.90;99.90
21883;DHT22;11106;47.864;13.054;2022-10-16T19:55:12;15.80;99.90
21883;DHT22;11106;47.864;13.054;2022-10-16T20:00:14;15.80;99.90
21883;DHT22;11106;47.864;13.054;2022-10-16T20:05:16;15.60;99.90
21883;DHT22;11106;47.864;13.054;2022-10-16T20:10:17;15.60;99.90
21883;DHT22;11106;47.864;13.054;2022-10-16T20:15:18;15.50;99.90
21883;DHT22;11106;47.864;13.054;2022-10-16T20:20:19;15.50;99.90
21883;DHT22;11106;47.864;13.054;2022-10-16T20:25:19;15.40;99.90
21883;DHT22;11106;47.864;13.054;2022-10-16T20:30:20;15.30;99.90
21883;DHT22;11106;47.864;13.054;2022-10-16T20:35:21;15.20;99.90
21883;DHT22;11106;47.864;13.054;2022-10-16T20:40:22;15.20;99.90
21883;DHT22;11106;47.864;13.054;2022-10-16T20:45:22;15.10;99.90
21883;DHT22;11106;47.864;13.054;2022-10-16T20:50:24;15.10;99.90
21883;DHT22;11106;47.864;13.054;2022-10-16T20:55:25;15.00;99.90
21883;DHT22;11106;47.864;13.054;2022-10-16T21:00:26;14.90;99.90
21883;DHT22;11106;47.864;13.054;2022-10-16T21:05:27;14.80;99.90
21883;DHT22;11106;47.864;13.054;2022-10-16T21:10:29;14.80;99.90
21883;DHT22;11106;47.864;13.054;2022-10-16T21:15:30;14.60;99.90
21883;DHT22;11106;47.864;13.054;2022-10-16T21:20:30;14.70;99.90
21883;DHT22;11106;47.864;13.054;2022-10-16T21:25:31;14.60;99.90
21883;DHT22;11106;47.864;13.054;2022-10-16T21:30:32;14.50;99.90
21883;DHT22;11106;47.864;13.054;2022-10-16T21:35:33;14.40;99.90
21883;DHT22;11106;47.864;13.054;2022-10-16T21:40:34;14.40;99.90
21883;DHT22;11106;47.864;13.054;2022-10-16T21:45:34;14.80;99.90
21883;DHT22;11106;47.864;13.054;2022-10-16T21:50:35;14.30;99.90
21883;DHT22;11106;47.864;13.054;2022-10-16T21:55:36;14.10;99.90
21883;DHT22;11106;47.864;13.054;2022-10-16T22:00:37;14.10;99.90
21883;DHT22;11106;47.864;13.054;2022-10-16T22:05:37;14.00;99.90
21883;DHT22;11106;47.864;13.054;2022-10-16T22:10:38;13.90;99.90
21883;DHT22;11106;47.864;13.054;2022-10-16T22:15:47;13.90;99.90
21883;DHT22;11106;47.864;13.054;2022-10-16T22:20:48;13.80;99.90
21883;DHT22;11106;47.864;13.054;2022-10-16T22:25:49;13.70;99.90
21883;DHT22;11106;47.864;13.054;2022-10-16T22:30:55;13.70;99.90
21883;DHT22;11106;47.864;13.054;2022-10-16T22:36:00;13.50;99.90
21883;DHT22;11106;47.864;13.054;2022-10-16T22:41:03;13.60;99.90
21883;DHT22;11106;47.864;13.054;2022-10-16T22:46:04;13.40;99.90
21883;DHT22;11106;47.864;13.054;2022-10-16T22:51:07;13.40;99.90
21883;DHT22;11106;47.864;13.054;2022-10-16T22:56:09;13.30;99.90
21883;DHT22;11106;47.864;13.054;2022-10-16T23:01:11;13.20;99.90
21883;DHT22;11106;47.864;13.054;2022-10-16T23:06:11;13.10;99.90
21883;DHT22;11106;47.864;13.054;2022-10-16T23:11:12;13.10;99.90
21883;DHT22;11106;47.864;13.054;2022-10-16T23:16:15;13.00;99.90
21883;DHT22;11106;47.864;13.054;2022-10-16T23:46:27;12.40;99.90
21883;DHT22;11106;47.864;13.054;2022-10-16T23:51:28;12.40;99.90
21883;DHT22;11106;47.864;13.054;2022-10-16T23:56:29;12.40;99.90
